Time;durP1;ratioP1;P1;durP2;ratioP2;P2;SDS_P1;SDS_P2;PMS_P1;PMS_P2;Temp;Humidity;BMP_temperature;BMP_pressure;BME280_temperature;BME280_humidity;BME280_pressure;Samples;Min_cycle;Max_cycle;Signal;HPM_P1;HPM_P2
2024/03/15 00:45:39;;;;;;;0.90;0.20;;;;;;;10.21;100.00;98372.44;5655774;24;20053;-82
2024/03/15 00:48:22;;;;;;;0.40;0.20;;;;;;;10.29;100.00;98393.44;4856568;29;20773;-86
2024/03/15 00:56:04;;;;;;;0.80;0.20;;;;;;;10.21;100.00;98383.00;4838216;29;20171;-84
2024/03/15 01:03:20;;;;;;;1.70;0.28;;;;;;;10.14;100.00;98377.69;4816071;29;20465;-85
2024/03/15 01:06:32;;;;;;;0.28;0.10;;;;;;;10.18;100.00;98404.50;4823994;29;20034;-84
2024/03/15 01:30:57;;;;;;;0.47;0.10;;;;;;;10.07;100.00;98434.06;4758585;30;20047;-85
2024/03/15 01:34:19;;;;;;;0.20;0.10;;;;;;;10.14;100.00;98441.06;4729089;30;20055;-84
2024/03/15 01:40:11;;;;;;;0.75;0.10;;;;;;;10.20;100.00;98438.63;4693496;30;20056;-88
2024/03/15 01:43:15;;;;;;;;;;;;;;;;;;;;;
2024/03/15 03:23:33;;;;;;;2.45;0.65;;;;;;;9.36;100.00;98482.13;4902025;24;20058;31
2024/03/15 03:30:59;;;;;;;3.90;0.55;;;;;;;9.32;100.00;98485.31;4729689;30;20712;-85
2024/03/15 03:34:16;;;;;;;1.65;0.63;;;;;;;9.33;100.00;98489.56;4722630;30;20052;-85
2024/03/15 03:36:45;;;;;;;5.20;0.82;;;;;;;9.24;100.00;98486.22;4701429;30;20033;-84
2024/03/15 03:44:03;;;;;;;0.57;0.30;;;;;;;9.21;100.00;98492.69;4730868;30;20059;-84
2024/03/15 03:46:45;;;;;;;3.30;0.30;;;;;;;9.16;100.00;98497.69;4740062;29;20040;-85
2024/03/15 03:53:03;;;;;;;5.97;0.68;;;;;;;9.05;100.00;98488.41;4809023;29;20031;-83
2024/03/15 03:55:40;;;;;;;;;;;;;;;;;;;;;
2024/03/15 04:03:48;;;;;;;0.63;0.30;;;;;;;8.90;100.00;98504.25;4725635;30;20040;-83
2024/03/15 04:06:21;;;;;;;3.38;0.35;;;;;;;8.84;100.00;98507.59;4717520;30;20502;-85
2024/03/15 04:12:55;;;;;;;1.55;0.20;;;;;;;8.79;100.00;98513.41;4693501;30;20441;-85
2024/03/15 04:15:36;;;;;;;2.80;0.30;;;;;;;8.82;100.00;98523.59;4704210;30;20061;-84
2024/03/15 04:18:16;;;;;;;4.78;0.45;;;;;;;8.73;100.00;98507.03;4779607;29;20105;-85
2024/03/15 04:21:10;;;;;;;3.53;0.57;;;;;;;8.75;100.00;98522.66;4765021;30;20129;-84
2024/03/15 04:23:42;;;;;;;2.30;0.32;;;;;;;8.71;100.00;98521.41;4804440;29;20042;-85
2024/03/15 04:26:11;;;;;;;2.13;0.40;;;;;;;8.71;100.00;98529.31;4792499;29;20039;-85
2024/03/15 04:29:38;;;;;;;3.92;0.40;;;;;;;8.71;100.00;98531.94;4792869;29;20483;-84
2024/03/15 04:32:25;;;;;;;5.82;0.30;;;;;;;8.70;100.00;98539.00;4742933;30;20040;-84
2024/03/15 04:34:51;;;;;;;6.72;0.82;;;;;;;8.65;100.00;98525.56;4734141;30;20063;-83
2024/03/15 04:37:20;;;;;;;3.60;0.32;;;;;;;8.65;100.00;98528.19;4746968;30;20059;-85
2024/03/15 04:39:49;;;;;;;3.70;0.30;;;;;;;8.66;100.00;98538.53;4736989;29;20090;-84
2024/03/15 04:42:18;;;;;;;3.40;0.65;;;;;;;8.72;100.00;98534.38;4802973;29;20035;-85
2024/03/15 04:44:47;;;;;;;4.65;0.50;;;;;;;8.73;100.00;98538.66;4799537;29;20038;-84
2024/03/15 04:47:23;;;;;;;4.25;0.38;;;;;;;8.77;100.00;98542.59;4801978;29;20132;-86
2024/03/15 04:49:52;;;;;;;4.22;0.55;;;;;;;8.75;100.00;98544.56;4800306;29;20038;-83
2024/03/15 04:52:18;;;;;;;1.38;0.30;;;;;;;8.72;100.00;98544.09;4802210;29;20049;-84
2024/03/15 04:54:44;;;;;;;3.08;0.32;;;;;;;8.69;100.00;98542.66;4790437;29;20436;-84
2024/03/15 04:57:25;;;;;;;5.38;0.28;;;;;;;8.67;100.00;98544.63;4797143;29;20039;-85
2024/03/15 04:59:51;;;;;;;4.00;0.60;;;;;;;8.67;100.00;98552.53;4781306;29;20422;-83
2024/03/15 05:02:21;;;;;;;2.95;0.45;;;;;;;8.67;100.00;98560.44;4768009;29;20039;-85
2024/03/15 05:04:49;;;;;;;4.22;0.45;;;;;;;8.72;100.00;98567.81;4779388;29;20114;-83
2024/03/15 05:07:15;;;;;;;8.05;0.50;;;;;;;8.72;100.00;98565.16;4795811;29;20511;-84
2024/03/15 05:09:44;;;;;;;2.85;0.40;;;;;;;8.73;100.00;98564.19;4780229;29;20381;-85
2024/03/15 05:12:12;;;;;;;5.10;0.57;;;;;;;8.67;100.00;98563.06;4783267;29;20031;-83
2024/03/15 05:14:38;;;;;;;2.40;0.38;;;;;;;8.69;100.00;98564.53;4784290;29;20041;-85
2024/03/15 05:17:04;;;;;;;3.40;0.50;;;;;;;8.73;100.00;98580.00;4806805;29;20038;-84
2024/03/15 05:19:29;;;;;;;1.95;0.20;;;;;;;8.68;100.00;98570.78;4801796;29;20107;-83
2024/03/15 05:24:56;;;;;;;2.40;0.60;;;;;;;8.65;100.00;98584.31;4777493;30;20112;-85
2024/03/15 05:27:24;;;;;;;3.53;0.30;;;;;;;8.64;100.00;98579.22;4768449;30;20055;-84
2024/03/15 05:30:00;;;;;;;4.38;0.70;;;;;;;8.65;100.00;98588.75;4762763;30;20035;-82
2024/03/15 05:32:28;;;;;;;8.75;1.23;;;;;;;8.59;100.00;98576.31;4780117;29;20057;-85
2024/03/15 05:34:56;;;;;;;2.05;0.30;;;;;;;8.62;100.00;98591.75;4777009;30;20039;-85
2024/03/15 05:37:22;;;;;;;0.90;0.32;;;;;;;8.54;100.00;98589.97;4793689;29;20051;-83
2024/03/15 05:39:48;;;;;;;4.10;0.60;;;;;;;8.49;100.00;98576.53;4781537;30;20650;-84
2024/03/15 05:42:16;;;;;;;2.85;0.40;;;;;;;8.48;100.00;98590.69;4764398;30;20130;-83
2024/03/15 05:44:45;;;;;;;4.25;0.40;;;;;;;8.39;100.00;98598.63;4798345;29;20112;-83
2024/03/15 05:47:12;;;;;;;3.90;0.35;;;;;;;8.41;100.00;98601.09;4771030;30;20096;-84
2024/03/15 05:50:08;;;;;;;2.80;0.32;;;;;;;8.41;100.00;98607.19;4778862;29;20102;-85
2024/03/15 05:52:34;;;;;;;6.28;0.43;;;;;;;8.38;100.00;98611.97;4771274;30;20445;-84
2024/03/15 05:55:00;;;;;;;4.68;1.05;;;;;;;8.37;100.00;98607.72;4784650;29;20544;-85
2024/03/15 05:57:28;;;;;;;5.45;0.73;;;;;;;8.35;100.00;98617.59;4793030;29;20047;-86
2024/03/15 05:59:55;;;;;;;2.42;0.30;;;;;;;8.34;100.00;98611.53;4754178;30;20047;-85
2024/03/15 06:02:33;;;;;;;7.47;0.47;;;;;;;8.38;100.00;98611.97;4797755;29;20189;-83
2024/03/15 06:05:01;;;;;;;5.43;0.50;;;;;;;8.41;100.00;98622.16;4798286;29;20091;-84
2024/03/15 06:07:29;;;;;;;1.70;0.60;;;;;;;8.38;100.00;98631.22;4785526;29;20051;-82
2024/03/15 06:09:55;;;;;;;3.63;0.40;;;;;;;8.38;100.00;98638.31;4784646;30;20037;-84
2024/03/15 06:12:38;;;;;;;3.75;0.35;;;;;;;8.42;100.00;98643.06;4783378;29;20047;-86
2024/03/15 06:15:10;;;;;;;3.08;0.32;;;;;;;8.40;100.00;98644.22;4784449;29;20063;-84
2024/03/15 06:17:36;;;;;;;5.32;0.30;;;;;;;8.44;100.00;98656.06;4798253;29;20035;-84
2024/03/15 06:20:03;;;;;;;2.03;0.43;;;;;;;8.47;100.00;98653.06;4801008;29;20093;-84
2024/03/15 06:22:30;;;;;;;2.92;0.60;;;;;;;8.47;100.00;98653.06;4768679;30;20047;-84
2024/03/15 06:24:57;;;;;;;7.32;0.45;;;;;;;8.46;100.00;98651.41;4787404;29;20050;-85
2024/03/15 06:27:23;;;;;;;3.72;0.50;;;;;;;8.47;100.00;98663.59;4803114;29;20050;-85
2024/03/15 06:29:54;;;;;;;2.03;0.30;;;;;;;8.48;100.00;98669.69;4804661;29;20050;-84
2024/03/15 06:32:28;;;;;;;3.53;0.55;;;;;;;8.51;100.00;98662.25;4789360;29;20043;-83
2024/03/15 06:35:00;;;;;;;4.38;0.40;;;;;;;8.54;100.00;98668.97;4800086;29;20121;-85
2024/03/15 06:37:29;;;;;;;3.65;0.40;;;;;;;8.54;100.00;98676.88;4799595;29;20758;-85
2024/03/15 06:42:24;;;;;;;6.03;0.50;;;;;;;8.51;100.00;98678.06;4800664;29;20042;-85
2024/03/15 06:45:57;;;;;;;6.15;0.45;;;;;;;8.52;100.00;98678.88;4794815;29;20035;-84
2024/03/15 06:47:52;;;;;;;3.70;0.40;;;;;;;8.51;100.00;98683.31;4799632;29;20119;-86
2024/03/15 06:50:30;;;;;;;2.05;0.30;;;;;;;8.57;100.00;98695.00;4771295;29;20057;-84
2024/03/15 06:53:04;;;;;;;3.08;0.40;;;;;;;8.49;100.00;98689.75;4799905;29;20490;-85
2024/03/15 06:55:36;;;;;;;3.17;0.60;;;;;;;8.51;100.00;98704.38;4815082;29;20060;-84
2024/03/15 06:58:02;;;;;;;4.20;0.45;;;;;;;8.54;100.00;98711.97;4783125;29;20087;-83
2024/03/15 07:00:30;;;;;;;1.65;0.30;;;;;;;8.52;100.00;98718.38;4785002;29;20490;-84
2024/03/15 07:02:56;;;;;;;1.60;0.30;;;;;;;8.53;100.00;98718.22;4798156;29;20039;-84
2024/03/15 07:05:25;;;;;;;4.82;0.65;;;;;;;8.53;100.00;98726.09;4797544;29;20043;-85
2024/03/15 07:07:53;;;;;;;2.58;0.30;;;;;;;8.50;100.00;98723.00;4778952;29;20043;-83
2024/03/15 07:10:19;;;;;;;6.80;0.40;;;;;;;8.51;100.00;98730.72;4769142;29;20072;-84
2024/03/15 07:12:46;;;;;;;2.97;0.30;;;;;;;8.56;100.00;98746.03;4781215;29;20065;-85
2024/03/15 07:15:15;;;;;;;3.72;0.55;;;;;;;8.55;100.00;98754.94;4797144;29;20474;-84
2024/03/15 07:17:46;;;;;;;4.32;0.93;;;;;;;8.52;100.00;98752.63;4791030;29;20126;-84
2024/03/15 07:20:12;;;;;;;4.10;0.40;;;;;;;8.49;100.00;98763.50;4794025;29;20347;-84
2024/03/15 07:22:41;;;;;;;9.43;0.98;;;;;;;8.49;100.00;98761.66;4795540;29;20051;-84
2024/03/15 07:25:10;;;;;;;4.88;0.80;;;;;;;8.51;100.00;98775.47;4824569;29;20050;-84
2024/03/15 07:27:37;;;;;;;6.38;0.80;;;;;;;8.50;100.00;98768.59;4783025;29;20487;-85
2024/03/15 07:30:05;;;;;;;4.10;0.50;;;;;;;8.52;100.00;98784.22;4798388;29;20038;-83
2024/03/15 07:32:35;;;;;;;7.25;0.70;;;;;;;8.50;100.00;98786.19;4788314;29;20074;-82
2024/03/15 07:35:03;;;;;;;3.53;0.55;;;;;;;8.52;100.00;98795.53;4798496;29;20039;-82
2024/03/15 07:37:29;;;;;;;2.90;0.40;;;;;;;8.49;100.00;98798.53;4779365;29;20053;-83
2024/03/15 07:39:54;;;;;;;2.63;0.50;;;;;;;8.55;100.00;98799.69;4782786;29;20042;-82
2024/03/15 07:42:20;;;;;;;5.60;0.68;;;;;;;8.55;100.00;98802.34;4813862;29;20790;-81
2024/03/15 07:44:48;;;;;;;2.88;0.80;;;;;;;8.55;100.00;98797.06;4778833;29;20046;-81
2024/03/15 07:47:15;;;;;;;4.88;0.80;;;;;;;8.59;100.00;98810.69;4764864;29;20046;-82
2024/03/15 07:49:41;;;;;;;1.92;0.38;;;;;;;8.55;100.00;98812.88;4799469;29;20050;-82
2024/03/15 07:52:07;;;;;;;3.50;0.63;;;;;;;8.55;100.00;98823.41;4792600;29;20053;-82
2024/03/15 07:54:33;;;;;;;3.50;0.55;;;;;;;8.55;100.00;98828.66;4797208;29;20402;-82
2024/03/15 07:56:59;;;;;;;5.00;0.80;;;;;;;8.59;100.00;98837.03;4808031;29;20051;-83
2024/03/15 08:00:33;;;;;;;3.47;0.98;;;;;;;8.67;100.00;98839.63;4811236;29;20043;-82
2024/03/15 08:03:00;;;;;;;0.90;0.20;;;;;;;8.60;100.00;98847.38;4791561;29;20042;-82
2024/03/15 08:05:27;;;;;;;0.35;0.20;;;;;;;8.61;100.00;98851.69;4796157;29;20038;-81
2024/03/15 08:07:54;;;;;;;0.85;0.15;;;;;;;8.57;100.00;98868.81;4803790;29;20617;-83
2024/03/15 08:10:23;;;;;;;0.30;0.17;;;;;;;8.53;100.00;98870.13;4786540;29;20057;-82
2024/03/15 08:12:49;;;;;;;2.22;0.30;;;;;;;8.44;100.00;98864.88;4798963;29;20630;-81
2024/03/15 08:15:15;;;;;;;1.63;0.28;;;;;;;8.40;100.00;98881.19;4802838;29;20031;-82
2024/03/15 08:17:40;;;;;;;2.72;0.85;;;;;;;8.40;100.00;98879.38;4802414;29;20094;-84
2024/03/15 08:20:10;;;;;;;1.38;0.40;;;;;;;8.41;100.00;98885.44;4795953;29;20705;-82
2024/03/15 08:22:38;;;;;;;2.33;0.20;;;;;;;8.39;100.00;98887.44;4801795;29;20477;-82
2024/03/15 08:25:09;;;;;;;1.35;0.50;;;;;;;8.40;100.00;98905.69;4755803;29;20047;-82
2024/03/15 08:27:35;;;;;;;2.53;0.80;;;;;;;8.42;100.00;98901.09;4781308;29;20047;-82
2024/03/15 08:30:03;;;;;;;2.15;0.55;;;;;;;8.43;100.00;98905.38;4783512;29;20059;-84
2024/03/15 08:32:30;;;;;;;6.53;0.88;;;;;;;8.35;100.00;98922.97;4783150;29;20040;-83
2024/03/15 08:34:57;;;;;;;8.95;1.20;;;;;;;8.32;100.00;98913.59;4798759;29;20539;-86
2024/03/15 08:37:39;;;;;;;3.38;0.60;;;;;;;8.35;100.00;98926.44;4798105;29;20043;-84
2024/03/15 08:40:09;;;;;;;8.52;1.10;;;;;;;8.31;100.00;98923.31;4769030;30;20043;-82
2024/03/15 08:42:35;;;;;;;3.63;0.70;;;;;;;8.40;100.00;98929.41;4769064;30;20042;-87
2024/03/15 08:45:08;;;;;;;11.68;1.33;;;;;;;8.52;100.00;98935.13;4797943;29;20101;-83
2024/03/15 08:47:35;;;;;;;9.27;1.52;;;;;;;8.62;100.00;98937.59;4798914;29;20382;-85
2024/03/15 08:50:07;;;;;;;6.07;1.45;;;;;;;8.69;100.00;98933.28;4759498;30;20506;-85
2024/03/15 08:52:33;;;;;;;7.82;1.17;;;;;;;8.75;100.00;98944.97;4733587;30;20179;-83
2024/03/15 08:54:59;;;;;;;7.88;1.52;;;;;;;8.89;100.00;98950.50;4783555;29;20108;-84
2024/03/15 08:57:34;;;;;;;6.45;1.05;;;;;;;9.00;100.00;98957.25;4740000;30;20490;-84
2024/03/15 09:00:00;;;;;;;5.35;1.20;;;;;;;8.96;100.00;98962.03;4787741;29;20035;-84
2024/03/15 09:02:26;;;;;;;10.45;3.58;;;;;;;8.92;100.00;98963.34;4781758;29;20047;-82
2024/03/15 09:04:52;;;;;;;6.40;2.58;;;;;;;8.85;100.00;98972.94;4796982;29;20051;-84
2024/03/15 09:07:19;;;;;;;8.25;2.63;;;;;;;8.82;100.00;98976.75;4748371;30;20827;-82
2024/03/15 09:09:45;;;;;;;5.45;1.25;;;;;;;8.84;100.00;98979.22;4796342;29;20043;-82
2024/03/15 09:12:11;;;;;;;5.80;1.10;;;;;;;8.87;100.00;98984.94;4793929;29;20761;-81
2024/03/15 09:14:37;;;;;;;6.47;1.80;;;;;;;8.91;100.00;98983.63;4749127;30;20051;-83
2024/03/15 09:17:12;;;;;;;10.68;1.92;;;;;;;8.95;100.00;98992.00;4782160;29;20035;-82
2024/03/15 09:19:38;;;;;;;9.37;1.13;;;;;;;8.92;100.00;98993.16;4784539;29;20097;-82
2024/03/15 09:22:04;;;;;;;4.28;1.25;;;;;;;8.97;100.00;99000.56;4754833;30;20085;-82
2024/03/15 09:24:31;;;;;;;5.57;1.10;;;;;;;9.11;100.00;99003.50;4779121;29;20529;-83
2024/03/15 09:26:58;;;;;;;3.95;1.10;;;;;;;9.19;100.00;99008.72;4798875;29;20039;-82
2024/03/15 09:29:23;;;;;;;6.03;0.90;;;;;;;9.20;100.00;99010.38;4777750;29;20133;-83
2024/03/15 09:31:51;;;;;;;6.18;1.10;;;;;;;9.16;100.00;99016.97;4786917;29;20456;-82
2024/03/15 09:34:17;;;;;;;2.95;0.60;;;;;;;9.01;100.00;99020.34;4802195;29;20171;-83
2024/03/15 09:36:43;;;;;;;4.13;0.90;;;;;;;8.98;100.00;99018.00;4801268;29;20041;-82
2024/03/15 09:39:14;;;;;;;3.55;0.50;;;;;;;8.98;100.00;99033.00;4800504;29;20588;-81
2024/03/15 09:44:59;;;;;;;5.82;0.70;;;;;;;8.71;100.00;99043.78;4786480;29;20030;-83
2024/03/15 09:47:26;;;;;;;4.75;0.82;;;;;;;8.76;100.00;99059.88;4818280;29;20081;-82
2024/03/15 09:49:53;;;;;;;5.88;0.80;;;;;;;8.76;100.00;99062.53;4827864;29;20043;-81
2024/03/15 09:52:19;;;;;;;8.40;0.98;;;;;;;8.81;100.00;99062.03;4802958;29;20058;-83
2024/03/15 09:54:48;;;;;;;5.00;0.40;;;;;;;8.86;100.00;99069.41;4831937;29;20042;-82
2024/03/15 09:57:14;;;;;;;4.18;0.63;;;;;;;8.78;100.00;99073.72;4801161;29;20495;-84
2024/03/15 09:59:41;;;;;;;1.63;0.47;;;;;;;8.79;100.00;99078.00;4782962;29;20118;-82
2024/03/15 10:02:31;;;;;;;1.65;0.20;;;;;;;8.89;100.00;99079.63;4807548;29;20550;-83
2024/03/15 10:05:07;;;;;;;2.30;0.43;;;;;;;8.98;100.00;99089.16;4782888;29;20045;-84
2024/03/15 10:07:54;;;;;;;6.00;0.95;;;;;;;8.99;100.00;99092.63;4793430;29;20067;-84
2024/03/15 10:10:23;;;;;;;1.73;0.38;;;;;;;9.12;100.00;99102.66;4815417;29;20059;-83
2024/03/15 10:12:58;;;;;;;2.42;0.35;;;;;;;9.16;100.00;99112.69;4795627;29;20047;-84
2024/03/15 10:19:18;;;;;;;3.25;0.20;;;;;;;8.95;100.00;99117.69;4786671;29;20042;-83
2024/03/15 10:22:07;;;;;;;3.10;0.38;;;;;;;9.00;100.00;99124.09;4792706;29;20066;-83
2024/03/15 10:24:46;;;;;;;3.95;0.35;;;;;;;9.06;100.00;99123.41;4789573;29;20063;-84
2024/03/15 10:27:26;;;;;;;;;;;;;;;;;;;;;
2024/03/15 10:30:40;;;;;;;1.75;0.40;;;;;;;9.28;100.00;99138.72;4766301;29;20150;-83
2024/03/15 10:33:35;;;;;;;2.30;0.45;;;;;;;9.25;100.00;99131.94;4779715;29;20047;-85
2024/03/15 10:36:08;;;;;;;3.75;0.70;;;;;;;9.27;100.00;99147.63;4765888;30;20035;-83
2024/03/15 10:38:39;;;;;;;3.88;0.40;;;;;;;9.31;100.00;99146.28;4782483;29;20038;-82
2024/03/15 10:41:19;;;;;;;2.67;0.40;;;;;;;9.32;100.00;99161.09;4754150;30;20391;-85
2024/03/15 10:43:46;;;;;;;0.98;0.20;;;;;;;9.24;100.00;99155.84;4754065;30;20349;-85
2024/03/15 10:46:12;;;;;;;3.40;0.70;;;;;;;9.21;100.00;99157.00;4767604;30;20050;-85
2024/03/15 10:48:39;;;;;;;1.45;0.35;;;;;;;9.24;100.00;99164.59;4799779;29;20047;-84
2024/03/15 10:51:15;;;;;;;2.92;0.45;;;;;;;9.28;100.00;99171.19;4765658;30;20046;-86
2024/03/15 10:53:45;;;;;;;2.22;0.28;;;;;;;9.26;100.00;99174.97;4766050;30;20475;-82
2024/03/15 10:56:32;;;;;;;3.42;0.45;;;;;;;9.30;100.00;99182.38;4750802;30;20043;-85
2024/03/15 10:58:57;;;;;;;6.15;0.75;;;;;;;9.30;100.00;99189.47;4752314;30;20039;-84
2024/03/15 11:01:51;;;;;;;1.88;0.32;;;;;;;9.43;100.00;99194.22;4736638;30;20411;-86
2024/03/15 11:04:35;;;;;;;1.88;0.50;;;;;;;9.47;100.00;99198.19;4765592;30;20085;-86
2024/03/15 11:07:06;;;;;;;5.80;1.08;;;;;;;9.45;100.00;99204.59;4796876;29;20084;-84
2024/03/15 11:09:56;;;;;;;6.05;0.60;;;;;;;9.54;100.00;99208.84;4782239;29;20047;-84
2024/03/15 11:12:27;;;;;;;3.25;0.30;;;;;;;9.45;100.00;99210.69;4761108;30;20046;-85
2024/03/15 11:15:05;;;;;;;6.30;0.52;;;;;;;9.47;100.00;99221.09;4762717;30;20044;-85
2024/03/15 11:17:31;;;;;;;5.35;0.50;;;;;;;9.35;100.00;99228.53;4776749;29;20039;-85
2024/03/15 11:20:06;;;;;;;2.40;0.90;;;;;;;9.52;100.00;99224.84;4780702;30;20406;-83
2024/03/15 11:22:40;;;;;;;1.60;0.20;;;;;;;9.62;100.00;99232.59;4782670;30;20043;-84
2024/03/15 11:28:08;;;;;;;1.70;0.50;;;;;;;9.62;100.00;99240.50;4782533;29;20078;-84
2024/03/15 11:30:58;;;;;;;5.38;0.68;;;;;;;9.57;100.00;99253.41;4792485;29;20042;-84
2024/03/15 11:33:55;;;;;;;2.58;0.60;;;;;;;9.40;100.00;99245.50;4763897;30;20084;-84
2024/03/15 11:36:44;;;;;;;2.70;0.52;;;;;;;9.37;100.00;99260.81;4752408;30;20491;-84
2024/03/15 11:39:23;;;;;;;6.43;0.90;;;;;;;9.38;100.00;99268.56;4753559;30;20039;-83
2024/03/15 11:42:01;;;;;;;4.13;1.15;;;;;;;9.53;100.00;99281.09;4781643;29;20039;-85
2024/03/15 11:44:34;;;;;;;3.78;0.85;;;;;;;9.48;100.00;99276.31;4773380;29;20423;-84
2024/03/15 11:47:11;;;;;;;4.88;0.57;;;;;;;9.50;100.00;99292.78;4785317;30;20567;-84
2024/03/15 11:49:56;;;;;;;3.80;0.50;;;;;;;9.43;100.00;99292.63;4799471;29;20101;-84
2024/03/15 11:52:27;;;;;;;3.60;0.60;;;;;;;9.38;100.00;99309.94;4800031;29;20043;-84
2024/03/15 11:59:15;;;;;;;3.33;0.75;;;;;;;9.47;100.00;99313.41;4783858;29;20059;-84
2024/03/15 12:01:48;;;;;;;3.28;0.40;;;;;;;9.48;100.00;99331.69;4798237;29;20043;-85
2024/03/15 12:17:00;;;;;;;5.38;0.65;;;;;;;10.17;100.00;99338.38;4784474;29;20073;-84
2024/03/15 12:19:29;;;;;;;6.05;0.80;;;;;;;10.14;100.00;99353.75;4722463;30;20510;-84
2024/03/15 12:22:00;;;;;;;2.85;0.60;;;;;;;10.09;100.00;99363.97;4746069;29;20043;-84
2024/03/15 12:24:56;;;;;;;5.95;0.50;;;;;;;10.01;100.00;99357.72;4779691;29;20048;-83
2024/03/15 12:27:28;;;;;;;2.72;0.77;;;;;;;9.89;100.00;99359.06;4743102;30;20066;-83
2024/03/15 12:30:06;;;;;;;1.35;0.30;;;;;;;9.77;100.00;99367.31;4781753;30;20042;-85
2024/03/15 12:33:15;;;;;;;4.78;0.60;;;;;;;9.87;100.00;99380.34;4783719;30;20043;-85
2024/03/15 12:39:23;;;;;;;2.60;0.50;;;;;;;10.02;100.00;99375.19;4770693;30;20070;-85
2024/03/15 12:42:15;;;;;;;3.05;0.32;;;;;;;10.10;100.00;99371.72;4777008;30;20039;-86
2024/03/15 12:45:14;;;;;;;3.55;0.40;;;;;;;10.34;100.00;99396.44;4761092;30;20086;-85
2024/03/15 12:47:43;;;;;;;2.28;0.40;;;;;;;10.40;100.00;99397.59;4791549;29;20038;-84
2024/03/15 12:50:21;;;;;;;4.80;0.47;;;;;;;10.50;100.00;99389.47;4781357;29;20059;-84
2024/03/15 12:53:16;;;;;;;3.95;0.65;;;;;;;10.52;100.00;99401.56;4767915;29;20039;-84
2024/03/15 12:55:45;;;;;;;3.83;0.65;;;;;;;10.82;100.00;99411.50;4739608;29;20062;-84
2024/03/15 12:58:46;;;;;;;3.97;0.65;;;;;;;10.86;100.00;99404.06;4795931;29;20028;-86
2024/03/15 13:01:46;;;;;;;2.20;0.70;;;;;;;11.12;100.00;99405.56;4778340;29;20050;-85
2024/03/15 13:04:25;;;;;;;5.65;1.15;;;;;;;11.22;100.00;99422.06;4797322;29;20553;-86
2024/03/15 13:07:04;;;;;;;2.22;0.40;;;;;;;11.15;100.00;99415.81;4782711;29;20368;-85
2024/03/15 13:09:37;;;;;;;3.75;0.63;;;;;;;11.12;100.00;99432.84;4768130;29;20039;-85
2024/03/15 13:12:12;;;;;;;1.55;0.30;;;;;;;11.06;100.00;99443.28;4792815;29;20043;-87
2024/03/15 13:14:45;;;;;;;3.88;0.50;;;;;;;10.98;100.00;99442.34;4801196;29;20086;-84
2024/03/15 13:17:14;;;;;;;1.70;0.40;;;;;;;10.95;100.00;99433.94;4792087;29;20051;-84
2024/03/15 13:19:42;;;;;;;1.80;0.50;;;;;;;11.06;100.00;99448.59;4787153;29;20039;-84
2024/03/15 13:22:27;;;;;;;3.05;0.60;;;;;;;11.27;100.00;99448.00;4780695;29;20038;-86
2024/03/15 13:25:27;;;;;;;4.00;0.68;;;;;;;11.18;100.00;99449.03;4791930;29;20059;-83
2024/03/15 13:28:45;;;;;;;3.85;0.30;;;;;;;11.26;100.00;99451.66;4829681;29;20055;-86
2024/03/15 13:32:07;;;;;;;1.95;0.40;;;;;;;11.43;100.00;99457.66;4824015;29;20046;-85
2024/03/15 13:35:07;;;;;;;1.15;0.38;;;;;;;11.35;100.00;99465.66;4834659;29;20049;-85
2024/03/15 13:37:59;;;;;;;2.25;0.60;;;;;;;11.55;100.00;99463.38;4801339;29;20075;-85
2024/03/15 13:40:25;;;;;;;3.25;0.60;;;;;;;11.70;100.00;99462.63;4793988;29;20053;-86
2024/03/15 13:43:06;;;;;;;5.68;0.80;;;;;;;11.94;100.00;99463.44;4818025;29;20405;-85
2024/03/15 13:45:38;;;;;;;4.38;0.57;;;;;;;11.73;100.00;99484.28;4802396;29;20713;-87
2024/03/15 13:51:17;;;;;;;2.17;0.30;;;;;;;11.33;100.00;99486.97;4797352;29;20661;-84
2024/03/15 13:58:46;;;;;;;1.65;0.52;;;;;;;11.59;100.00;99493.81;4813472;29;20038;-93
2024/03/15 14:01:50;;;;;;;;;;;;;;;;;;;;;
2024/03/15 14:08:53;;;;;;;1.85;0.40;;;;;;;11.04;100.00;99522.78;4808475;29;20042;-94
2024/03/15 14:12:04;;;;;;;1.48;0.30;;;;;;;11.00;100.00;99532.06;4805737;29;20514;-95
2024/03/15 14:14:36;;;;;;;1.77;0.32;;;;;;;11.00;100.00;99527.63;4806188;29;20030;-92
2024/03/15 14:18:32;;;;;;;3.90;0.67;;;;;;;11.21;100.00;99528.84;4823370;29;20044;-93
2024/03/15 14:22:01;;;;;;;2.70;0.70;;;;;;;11.27;100.00;99537.94;4806123;29;20046;-96
2024/03/15 14:24:50;;;;;;;2.30;0.70;;;;;;;11.14;100.00;99535.81;4822125;29;20141;-93
2024/03/15 14:27:46;;;;;;;4.38;0.60;;;;;;;10.97;100.00;99543.00;4787134;29;20141;-94
2024/03/15 14:42:01;;;;;;;3.55;0.85;;;;;;;11.61;100.00;99557.16;4688171;30;20055;-93
2024/03/15 14:44:33;;;;;;;3.15;0.47;;;;;;;11.35;100.00;99559.06;4661747;30;20061;-92
2024/03/15 14:47:46;;;;;;;3.03;0.43;;;;;;;11.26;100.00;99563.56;4751319;30;20075;-95
2024/03/15 14:56:30;;;;;;;2.67;0.60;;;;;;;11.72;100.00;99580.56;4707496;30;20080;-95
2024/03/15 15:03:40;;;;;;;2.63;0.43;;;;;;;11.33;100.00;99586.69;4753969;29;20073;-94
2024/03/15 15:06:32;;;;;;;;;;;;;;;;;;;;;
2024/03/15 15:09:02;;;;;;;3.90;0.90;;;;;;;11.20;100.00;99590.69;4771139;29;20526;-90
2024/03/15 15:31:52;;;;;;;;;;;;;;;11.27;100.00;99649.03;4807046;29;20205;-91
2024/03/15 15:38:38;;;;;;;5.28;0.60;;;;;;;11.33;100.00;99650.19;4780993;29;20063;-93
2024/03/15 15:41:50;;;;;;;1.85;0.50;;;;;;;11.47;100.00;99656.59;4806170;29;20402;-95
2024/03/15 15:44:31;;;;;;;4.40;1.10;;;;;;;11.35;100.00;99674.66;4804956;29;20038;-91
2024/03/15 15:47:44;;;;;;;2.70;0.63;;;;;;;11.35;100.00;99675.50;4786802;29;20120;-92
2024/03/15 15:50:21;;;;;;;2.33;0.45;;;;;;;11.30;100.00;99672.50;4794789;29;20184;-92
2024/03/15 15:53:33;;;;;;;1.40;0.40;;;;;;;11.35;100.00;99664.91;4771959;30;20076;-90
2024/03/15 15:56:16;;;;;;;2.08;0.40;;;;;;;11.28;100.00;99680.63;4788365;29;20055;-91
2024/03/15 15:59:02;;;;;;;0.80;0.40;;;;;;;11.35;100.00;99672.84;4805727;29;20557;-89
2024/03/15 16:01:35;;;;;;;2.78;0.40;;;;;;;11.48;100.00;99671.50;4805460;29;20082;-92
2024/03/15 16:04:23;;;;;;;7.47;0.65;;;;;;;11.52;100.00;99676.28;4789549;29;20095;-92
2024/03/15 16:07:18;;;;;;;3.17;0.63;;;;;;;11.77;100.00;99678.00;4797272;29;20077;-91
2024/03/15 16:09:47;;;;;;;2.45;0.68;;;;;;;11.72;100.00;99667.91;4803737;29;20134;-88
2024/03/15 16:12:45;;;;;;;5.82;0.70;;;;;;;11.92;100.00;99688.72;4799397;29;20577;-94
2024/03/15 16:18:56;;;;;;;1.85;0.40;;;;;;;11.79;100.00;99702.50;4791541;29;20103;-91
2024/03/15 16:21:22;;;;;;;3.83;0.70;;;;;;;11.52;100.00;99712.50;4773294;30;20059;-90
2024/03/15 16:24:48;;;;;;;1.80;0.57;;;;;;;11.27;98.27;99718.66;4768781;30;20138;-93
2024/03/15 16:27:58;;;;;;;5.20;0.85;;;;;;;10.99;100.00;99729.56;4780390;30;20565;-93
2024/03/15 16:30:49;;;;;;;8.38;1.92;;;;;;;10.89;100.00;99740.28;4777483;30;20424;-93
2024/03/15 16:34:18;;;;;;;5.78;2.13;;;;;;;10.79;100.00;99742.28;4787608;30;20055;-92
2024/03/15 16:37:16;;;;;;;3.70;1.17;;;;;;;10.85;100.00;99756.66;4772666;30;20039;-92
2024/03/15 16:39:57;;;;;;;4.53;1.48;;;;;;;10.87;100.00;99752.03;4800953;29;20064;-92
2024/03/15 16:42:47;;;;;;;3.92;0.55;;;;;;;10.94;100.00;99762.78;4787494;29;20051;-93
2024/03/15 16:45:46;;;;;;;6.13;1.15;;;;;;;11.00;100.00;99752.38;4780996;29;20073;-91
2024/03/15 16:48:55;;;;;;;3.05;0.80;;;;;;;11.13;100.00;99766.94;4772200;30;20047;-93
2024/03/15 16:51:56;;;;;;;2.42;0.43;;;;;;;11.18;100.00;99785.75;4797136;29;20442;-92
2024/03/15 16:54:28;;;;;;;1.55;0.50;;;;;;;11.11;100.00;99788.25;4799023;29;20083;-92
2024/03/15 16:57:29;;;;;;;3.00;0.60;;;;;;;11.04;100.00;99782.78;4799553;29;20525;-92
2024/03/15 17:03:53;;;;;;;4.72;0.63;;;;;;;11.05;100.00;99802.13;4763697;30;20035;-94
2024/03/15 17:06:37;;;;;;;5.53;1.45;;;;;;;10.97;100.00;99813.53;4772750;30;20131;-95
2024/03/15 17:09:18;;;;;;;4.20;0.98;;;;;;;10.99;100.00;99824.75;4771434;30;20047;-95
2024/03/15 17:12:37;;;;;;;4.03;1.13;;;;;;;10.90;100.00;99823.09;4783597;29;20126;-95
2024/03/15 17:15:50;;;;;;;7.35;1.55;;;;;;;10.91;100.00;99840.59;4767292;30;20062;-95
2024/03/15 17:22:44;;;;;;;5.80;1.85;;;;;;;10.87;100.00;99849.84;4772070;30;20039;-94
2024/03/15 17:26:26;;;;;;;3.08;0.82;;;;;;;10.89;100.00;99847.88;4750648;30;20516;-94
2024/03/15 17:30:47;;;;;;;;;;;;;;;;;;;;;
2024/03/15 17:38:51;;;;;;;6.07;1.70;;;;;;;10.71;100.00;99872.59;4687271;30;20053;-94
2024/03/15 17:47:05;;;;;;;6.65;3.22;;;;;;;10.64;100.00;99890.06;4602034;31;20134;-93
2024/03/15 17:56:23;;;;;;;;;;;;;;;;;;;;;